createdAt,value
2023-02-27T00:02:17.769Z,73.04
2023-02-27T00:04:45.512Z,72.67
2023-02-27T00:07:13.513Z,72.76
2023-02-27T00:09:42.541Z,72.66
2023-02-27T00:12:11.916Z,72.02
2023-02-27T00:14:39.530Z,72.79
2023-02-27T00:17:07.856Z,72.72
2023-02-27T00:19:35.535Z,73.54
2023-02-27T00:22:03.231Z,73.64
2023-02-27T00:24:30.901Z,74.04
2023-02-27T00:26:59.896Z,73.67
2023-02-27T00:29:27.547Z,73.77
2023-02-27T00:31:55.267Z,73.80
2023-02-27T00:34:23.067Z,73.85
2023-02-27T00:36:50.853Z,74.23
2023-02-27T00:39:18.552Z,74.66
2023-02-27T00:41:46.244Z,74.51
2023-02-27T00:44:15.332Z,74.38
2023-02-27T00:46:42.977Z,74.58
2023-02-27T00:49:10.601Z,74.76
2023-02-27T00:51:38.336Z,74.89
2023-02-27T00:54:06.307Z,75.13
2023-02-27T00:56:34.640Z,75.45
2023-02-27T00:59:02.270Z,75.16
2023-02-27T01:01:31.457Z,75.77
2023-02-27T01:03:59.067Z,75.60
2023-02-27T01:06:26.721Z,76.42
2023-02-27T01:08:55.845Z,76.91
2023-02-27T01:11:23.655Z,76.96
2023-02-27T01:13:51.423Z,76.82
2023-02-27T01:16:19.068Z,77.08
2023-02-27T01:18:48.130Z,77.73
2023-02-27T01:21:15.910Z,77.52
2023-02-27T01:23:43.531Z,77.39
2023-02-27T01:26:11.244Z,77.23
2023-02-27T01:28:39.155Z,77.87
2023-02-27T01:31:07.034Z,77.68
2023-02-27T01:33:34.656Z,78.20
2023-02-27T01:36:03.705Z,78.03
2023-02-27T01:38:31.412Z,78.44
2023-02-27T01:41:00.623Z,78.59
2023-02-27T01:43:28.744Z,78.93
2023-02-27T01:45:56.662Z,78.47
2023-02-27T01:48:27.856Z,80.08
2023-02-27T01:50:59.278Z,80.77
2023-02-27T01:53:30.790Z,82.27
2023-02-27T01:56:01.531Z,83.21
2023-02-27T01:58:29.675Z,83.47
2023-02-27T02:00:58.210Z,82.97
2023-02-27T02:03:32.155Z,82.88
2023-02-27T02:06:03.074Z,83.41
2023-02-27T02:08:35.738Z,83.55
2023-02-27T02:11:04.646Z,83.82
2023-02-27T02:13:33.030Z,83.96
2023-02-27T02:16:22.910Z,84.81
2023-02-27T02:19:01.626Z,85.01
2023-02-27T02:22:00.901Z,84.49
2023-02-27T02:25:19.013Z,85.04
2023-02-27T02:27:59.683Z,85.43
2023-02-27T02:30:55.566Z,85.54
2023-02-27T02:33:57.563Z,86.11
2023-02-27T02:36:56.120Z,86.47
2023-02-27T02:39:49.448Z,86.79
2023-02-27T02:42:23.374Z,86.78
2023-02-27T02:45:05.094Z,86.81
2023-02-27T02:47:41.627Z,86.84
2023-02-27T02:50:15.683Z,86.62
2023-02-27T02:52:52.515Z,85.83
2023-02-27T02:55:25.763Z,85.42
2023-02-27T02:57:59.795Z,85.00
2023-02-27T03:00:32.707Z,84.86
2023-02-27T03:03:05.089Z,84.73
2023-02-27T03:05:37.003Z,84.68
2023-02-27T03:08:10.202Z,84.47
2023-02-27T03:10:43.403Z,83.98
2023-02-27T03:13:15.054Z,83.83
2023-02-27T03:15:49.180Z,84.38
2023-02-27T03:18:22.132Z,83.26
2023-02-27T03:20:55.919Z,83.67
2023-02-27T03:23:29.540Z,83.06
2023-02-27T03:25:59.484Z,82.85
2023-02-27T03:28:32.831Z,82.55
2023-02-27T03:31:10.157Z,83.24
2023-02-27T03:33:44.563Z,83.66
2023-02-27T03:36:18.963Z,83.05
2023-02-27T03:38:53.000Z,83.42
2023-02-27T03:41:28.612Z,83.95
2023-02-27T03:44:06.541Z,83.46
2023-02-27T03:46:34.483Z,83.16
2023-02-27T03:49:02.222Z,83.41
2023-02-27T03:51:31.503Z,83.51
2023-02-27T03:54:05.906Z,83.09
2023-02-27T03:56:40.114Z,83.46
2023-02-27T03:59:08.247Z,83.41
2023-02-27T04:01:36.242Z,82.85
2023-02-27T04:04:08.377Z,82.67
2023-02-27T04:06:56.416Z,82.73
2023-02-27T04:09:31.672Z,82.65
2023-02-27T04:12:20.393Z,82.44
2023-02-27T04:15:04.797Z,83.10
2023-02-27T04:17:34.711Z,82.85
2023-02-27T04:20:35.329Z,82.47
2023-02-27T04:23:07.479Z,82.28
2023-02-27T04:25:49.206Z,82.71
2023-02-27T04:28:24.410Z,82.59
2023-02-27T04:31:05.377Z,82.51
2023-02-27T04:33:44.214Z,82.92
2023-02-27T04:36:17.602Z,82.56
2023-02-27T04:38:49.240Z,82.84
2023-02-27T04:41:22.408Z,82.66
2023-02-27T04:43:53.673Z,82.95
2023-02-27T04:46:25.713Z,83.00
2023-02-27T04:48:59.274Z,82.89
2023-02-27T04:51:30.437Z,83.74
2023-02-27T04:54:01.791Z,83.60
2023-02-27T04:56:32.313Z,83.24
2023-02-27T04:59:04.759Z,83.56
2023-02-27T05:01:37.043Z,84.11
2023-02-27T05:04:08.247Z,84.63
2023-02-27T05:06:38.929Z,84.45
2023-02-27T05:09:14.847Z,84.83
2023-02-27T05:11:48.976Z,85.10
2023-02-27T05:14:22.431Z,85.18
2023-02-27T05:16:55.330Z,85.52
2023-02-27T05:19:23.366Z,86.20
2023-02-27T05:21:57.689Z,86.64
2023-02-27T05:24:34.086Z,86.82
2023-02-27T05:27:17.101Z,86.48
2023-02-27T05:29:50.379Z,87.51
2023-02-27T05:32:33.466Z,87.98
2023-02-27T05:35:08.364Z,88.24
2023-02-27T05:37:42.904Z,88.89
2023-02-27T05:40:13.638Z,89.30
2023-02-27T05:42:44.826Z,90.85
2023-02-27T05:45:20.607Z,90.47
2023-02-27T05:47:54.787Z,90.05
2023-02-27T05:50:27.423Z,89.88
2023-02-27T05:52:59.588Z,89.47
2023-02-27T05:55:32.321Z,89.19
2023-02-27T05:58:07.349Z,89.20
2023-02-27T06:00:40.390Z,88.93
2023-02-27T06:03:08.234Z,88.94
2023-02-27T06:05:37.550Z,89.48
2023-02-27T06:08:05.203Z,89.11
2023-02-27T06:10:33.311Z,89.23
2023-02-27T06:13:01.123Z,88.88
2023-02-27T06:15:28.779Z,88.13
2023-02-27T06:17:57.890Z,88.49
2023-02-27T06:20:25.555Z,88.47
2023-02-27T06:22:53.539Z,88.47
2023-02-27T06:25:21.984Z,87.74
2023-02-27T06:27:49.739Z,88.17
2023-02-27T06:30:18.065Z,87.41
2023-02-27T06:32:45.696Z,88.54
2023-02-27T06:35:14.772Z,89.18
2023-02-27T06:37:42.444Z,88.93
2023-02-27T06:40:12.456Z,89.16
2023-02-27T06:42:40.500Z,89.41
2023-02-27T06:45:10.171Z,89.67
2023-02-27T06:47:37.879Z,90.09
2023-02-27T06:50:06.644Z,90.27
2023-02-27T06:52:35.646Z,90.33
2023-02-27T06:55:04.485Z,90.38
2023-02-27T06:57:32.250Z,90.48
2023-02-27T06:59:59.948Z,89.92
2023-02-27T07:02:27.678Z,90.33
2023-02-27T07:04:55.440Z,90.67
2023-02-27T07:07:34.815Z,90.30
2023-02-27T07:10:07.660Z,90.82
2023-02-27T07:12:35.477Z,91.44
2023-02-27T07:15:03.145Z,91.08
2023-02-27T07:17:31.643Z,91.24
2023-02-27T07:19:59.300Z,91.48
2023-02-27T07:22:27.039Z,91.61
2023-02-27T07:24:54.697Z,91.63
2023-02-27T07:27:23.779Z,91.58
2023-02-27T07:29:52.771Z,91.00
2023-02-27T07:32:20.613Z,91.14
2023-02-27T07:34:48.455Z,91.30
2023-02-27T07:37:16.107Z,90.89
2023-02-27T07:39:44.532Z,90.94
2023-02-27T07:42:12.499Z,90.82
2023-02-27T07:44:41.600Z,90.09
2023-02-27T07:47:09.356Z,90.71
2023-02-27T07:49:37.056Z,90.10
2023-02-27T07:52:04.725Z,90.82
2023-02-27T07:54:34.501Z,90.07
2023-02-27T07:57:03.392Z,90.24
2023-02-27T07:59:31.109Z,90.03
2023-02-27T08:02:00.162Z,89.99
2023-02-27T08:04:27.872Z,89.87
2023-02-27T08:06:55.615Z,89.79
2023-02-27T08:09:23.726Z,90.16
2023-02-27T08:11:51.366Z,89.95
2023-02-27T08:14:19.088Z,90.65
2023-02-27T08:16:46.704Z,89.80
2023-02-27T08:19:16.160Z,89.88
2023-02-27T08:21:43.893Z,89.59
2023-02-27T08:24:12.013Z,89.08
2023-02-27T08:26:39.686Z,89.58
2023-02-27T08:29:07.713Z,89.69
2023-02-27T08:31:35.534Z,89.99
2023-02-27T08:34:10.290Z,90.03
2023-02-27T08:36:40.680Z,90.33
2023-02-27T08:39:09.614Z,90.23
2023-02-27T08:41:37.685Z,90.47
2023-02-27T08:44:06.012Z,90.52
2023-02-27T08:46:33.794Z,90.50
2023-02-27T08:49:01.424Z,90.79
2023-02-27T08:51:29.393Z,90.27
2023-02-27T08:53:59.066Z,89.42
2023-02-27T08:56:27.318Z,89.22
2023-02-27T08:58:55.406Z,89.11
2023-02-27T09:01:23.790Z,89.58
2023-02-27T09:03:51.516Z,88.82
2023-02-27T09:06:19.231Z,88.58
2023-02-27T09:08:46.872Z,88.76
2023-02-27T09:11:15.912Z,88.27
2023-02-27T09:13:43.569Z,88.14
2023-02-27T09:16:11.306Z,87.97
2023-02-27T09:18:39.049Z,87.66
2023-02-27T09:21:07.088Z,87.41
2023-02-27T09:23:34.782Z,87.50
2023-02-27T09:26:02.661Z,87.28
2023-02-27T09:28:31.987Z,87.54
2023-02-27T09:31:01.745Z,86.91
2023-02-27T09:33:29.433Z,85.89
2023-02-27T09:35:57.113Z,85.67
2023-02-27T09:38:24.874Z,85.33
2023-02-27T09:40:55.000Z,84.85
2023-02-27T09:43:27.117Z,84.48
2023-02-27T09:45:58.050Z,84.41
2023-02-27T09:48:31.399Z,82.28
2023-02-27T09:50:59.991Z,82.04
2023-02-27T09:53:31.229Z,82.23
2023-02-27T09:56:06.373Z,81.70
2023-02-27T09:58:44.229Z,80.16
2023-02-27T10:01:17.248Z,79.82
2023-02-27T10:04:04.276Z,78.90
2023-02-27T10:06:39.923Z,78.69
2023-02-27T10:09:20.148Z,78.83
2023-02-27T10:11:58.137Z,77.85
2023-02-27T10:14:42.448Z,77.61
2023-02-27T10:17:17.311Z,78.00
2023-02-27T10:19:49.209Z,77.58
2023-02-27T10:22:22.264Z,76.98
2023-02-27T10:24:54.005Z,76.88
2023-02-27T10:27:23.079Z,76.20
2023-02-27T10:29:52.115Z,76.07
2023-02-27T10:32:24.771Z,75.32
2023-02-27T10:34:56.437Z,73.11
2023-02-27T10:37:27.444Z,71.73
2023-02-27T10:39:58.715Z,70.79
2023-02-27T10:42:31.149Z,71.40
2023-02-27T10:44:59.105Z,69.97
2023-02-27T10:47:28.133Z,69.69
2023-02-27T10:49:56.274Z,67.15
2023-02-27T10:52:23.967Z,67.21
2023-02-27T10:54:52.958Z,67.41
2023-02-27T10:57:30.298Z,64.58
2023-02-27T11:00:00.266Z,65.14
2023-02-27T11:02:36.507Z,64.28
2023-02-27T11:05:06.246Z,64.52
2023-02-27T11:07:37.314Z,63.53
2023-02-27T11:10:17.988Z,63.73
2023-02-27T11:13:00.381Z,64.67
2023-02-27T11:15:29.815Z,64.82
2023-02-27T11:18:21.403Z,63.37
2023-02-27T11:20:50.860Z,62.22
2023-02-27T11:23:21.212Z,62.68
2023-02-27T11:25:49.634Z,62.91
2023-02-27T11:28:24.150Z,63.68
2023-02-27T11:31:01.189Z,63.91
2023-02-27T11:33:33.220Z,63.48
2023-02-27T11:36:01.221Z,64.18
2023-02-27T11:38:31.447Z,65.56
2023-02-27T11:41:01.673Z,66.96
2023-02-27T11:43:32.290Z,67.21
2023-02-27T11:46:04.640Z,66.58
2023-02-27T11:48:53.908Z,67.01
2023-02-27T11:51:33.011Z,66.85
2023-02-27T11:54:16.395Z,64.53
2023-02-27T11:56:47.135Z,65.10
2023-02-27T11:59:26.306Z,67.08
2023-02-27T12:02:00.579Z,68.12
2023-02-27T12:04:34.303Z,68.23
2023-02-27T12:07:07.389Z,67.63
2023-02-27T12:09:44.960Z,66.50
2023-02-27T12:12:21.724Z,65.65
2023-02-27T12:14:58.109Z,65.31
2023-02-27T12:17:31.091Z,65.41
2023-02-27T12:20:18.547Z,63.78
2023-02-27T12:22:49.263Z,63.20
2023-02-27T12:25:27.788Z,62.58
2023-02-27T12:28:00.706Z,61.22
2023-02-27T12:30:32.740Z,61.29
2023-02-27T12:33:04.580Z,61.75
2023-02-27T12:35:34.001Z,60.36
2023-02-27T12:38:02.630Z,57.11
2023-02-27T12:40:32.466Z,56.08
2023-02-27T12:43:24.147Z,54.71
2023-02-27T12:46:05.078Z,51.00
2023-02-27T12:48:55.238Z,50.21
2023-02-27T12:51:34.210Z,50.33
2023-02-27T12:54:15.961Z,47.10
2023-02-27T12:56:52.050Z,51.36
2023-02-27T12:59:45.444Z,55.35
2023-02-27T13:02:41.741Z,54.89
2023-02-27T13:05:24.672Z,55.49
2023-02-27T13:08:00.880Z,54.62
2023-02-27T13:10:35.377Z,54.94
2023-02-27T13:13:09.750Z,55.40
2023-02-27T13:15:44.869Z,54.75
2023-02-27T13:18:28.623Z,54.68
2023-02-27T13:21:01.482Z,54.45
2023-02-27T13:23:36.422Z,55.54
2023-02-27T13:26:10.970Z,54.72
2023-02-27T13:28:38.834Z,53.80
2023-02-27T13:31:13.688Z,54.50
2023-02-27T13:33:47.899Z,54.50
2023-02-27T13:36:19.829Z,53.16
2023-02-27T13:38:51.597Z,53.72
2023-02-27T13:41:39.309Z,53.55
2023-02-27T13:44:40.448Z,54.67
2023-02-27T13:47:40.613Z,52.25
2023-02-27T13:50:44.095Z,52.41
2023-02-27T13:53:18.495Z,51.97
2023-02-27T13:55:47.568Z,51.79
2023-02-27T13:58:19.088Z,52.61
2023-02-27T14:00:57.229Z,52.83
2023-02-27T14:03:27.376Z,51.96
2023-02-27T14:05:58.821Z,52.20
2023-02-27T14:08:28.886Z,50.74
2023-02-27T14:11:02.660Z,49.95
2023-02-27T14:13:59.753Z,49.77
2023-02-27T14:16:59.729Z,49.80
2023-02-27T14:19:49.228Z,50.89
2023-02-27T14:22:39.007Z,52.12
2023-02-27T14:25:18.520Z,51.75
2023-02-27T14:27:52.117Z,51.84
2023-02-27T14:30:29.033Z,52.42
2023-02-27T14:33:01.625Z,51.56
2023-02-27T14:35:31.181Z,51.91
2023-02-27T14:38:11.761Z,52.90
2023-02-27T14:40:48.646Z,53.15
2023-02-27T14:43:29.995Z,52.23
2023-02-27T14:46:17.378Z,52.78
2023-02-27T14:48:44.983Z,52.88
2023-02-27T14:51:12.746Z,53.04
2023-02-27T14:53:40.613Z,53.00
2023-02-27T14:56:19.402Z,54.18
2023-02-27T14:59:03.483Z,53.28
2023-02-27T15:01:36.328Z,54.42
2023-02-27T15:04:05.979Z,54.76
2023-02-27T15:06:40.291Z,55.51
2023-02-27T15:09:08.788Z,55.67
2023-02-27T15:11:44.709Z,55.72
2023-02-27T15:14:21.875Z,55.16
2023-02-27T15:16:55.747Z,55.70
2023-02-27T15:19:25.778Z,56.73
2023-02-27T15:21:55.335Z,55.28
2023-02-27T15:24:35.245Z,55.51
2023-02-27T15:27:17.150Z,56.37
2023-02-27T15:29:50.616Z,56.32
2023-02-27T15:32:25.043Z,57.08
2023-02-27T15:34:53.206Z,56.63
2023-02-27T15:37:23.701Z,57.05
2023-02-27T15:39:51.662Z,56.56
2023-02-27T15:42:21.098Z,56.69
2023-02-27T15:44:50.869Z,56.47
2023-02-27T15:47:24.513Z,56.26
2023-02-27T15:49:57.101Z,56.54
2023-02-27T15:52:27.334Z,56.10
2023-02-27T15:55:02.439Z,56.12
2023-02-27T15:57:30.926Z,56.67
2023-02-27T16:00:01.774Z,57.64
2023-02-27T16:02:32.512Z,58.68
2023-02-27T16:05:00.510Z,57.91
2023-02-27T16:07:30.019Z,57.67
2023-02-27T16:10:03.919Z,57.28
2023-02-27T16:12:34.628Z,57.18
2023-02-27T16:15:22.794Z,57.11
2023-02-27T16:17:55.604Z,59.55
2023-02-27T16:20:41.864Z,60.31
2023-02-27T16:23:20.034Z,61.75
2023-02-27T16:26:02.890Z,62.50
2023-02-27T16:28:35.410Z,62.85
2023-02-27T16:31:04.666Z,61.93
2023-02-27T16:33:36.601Z,61.22
2023-02-27T16:36:19.210Z,61.35
2023-02-27T16:38:47.819Z,61.06
2023-02-27T16:41:17.414Z,61.54
2023-02-27T16:43:46.671Z,59.97
2023-02-27T16:46:20.178Z,60.13
2023-02-27T16:48:51.449Z,61.29
2023-02-27T16:51:21.478Z,61.92
2023-02-27T16:53:49.784Z,62.00
2023-02-27T16:56:23.733Z,62.55
2023-02-27T16:58:54.807Z,61.35
2023-02-27T17:01:23.940Z,60.94
2023-02-27T17:03:53.052Z,61.63
2023-02-27T17:06:20.747Z,60.73
2023-02-27T17:08:48.462Z,60.83
2023-02-27T17:11:16.158Z,61.66
2023-02-27T17:13:43.813Z,61.85
2023-02-27T17:16:18.776Z,62.05
2023-02-27T17:18:47.829Z,61.94
2023-02-27T17:21:15.436Z,61.79
2023-02-27T17:23:43.119Z,62.11
2023-02-27T17:26:10.781Z,62.42
2023-02-27T17:28:38.568Z,62.93
2023-02-27T17:31:08.987Z,63.12
2023-02-27T17:33:36.554Z,62.62
2023-02-27T17:36:07.767Z,62.55
2023-02-27T17:38:36.285Z,62.36
2023-02-27T17:41:07.813Z,63.46
2023-02-27T17:43:35.603Z,63.78
2023-02-27T17:46:06.614Z,63.87
2023-02-27T17:48:35.528Z,63.08
2023-02-27T17:51:09.358Z,62.71
2023-02-27T17:53:37.978Z,63.08
2023-02-27T17:56:06.683Z,63.55
2023-02-27T17:58:34.874Z,63.73
2023-02-27T18:01:05.765Z,63.99
2023-02-27T18:03:34.043Z,65.39
2023-02-27T18:06:02.392Z,65.51
2023-02-27T18:08:32.384Z,65.42
2023-02-27T18:11:00.476Z,66.04
2023-02-27T18:13:28.410Z,66.45
2023-02-27T18:15:57.171Z,66.79
2023-02-27T18:18:25.152Z,66.74
2023-02-27T18:21:02.186Z,67.09
2023-02-27T18:23:31.692Z,67.71
2023-02-27T18:26:00.211Z,67.86
2023-02-27T18:28:28.060Z,68.64
2023-02-27T18:30:56.186Z,68.68
2023-02-27T18:33:24.056Z,68.62
2023-02-27T18:35:52.095Z,68.41
2023-02-27T18:38:19.851Z,69.32
2023-02-27T18:40:49.025Z,69.21
2023-02-27T18:43:16.749Z,68.24
2023-02-27T18:45:44.526Z,67.61
2023-02-27T18:48:12.165Z,68.00
2023-02-27T18:50:39.865Z,68.26
2023-02-27T18:53:07.565Z,68.59
2023-02-27T18:55:36.147Z,69.07
2023-02-27T18:58:06.195Z,69.23
2023-02-27T19:00:34.194Z,69.18
2023-02-27T19:03:02.003Z,69.09
2023-02-27T19:05:29.751Z,69.01
2023-02-27T19:07:58.498Z,68.91
2023-02-27T19:10:26.107Z,69.22
2023-02-27T19:12:53.764Z,69.29
2023-02-27T19:15:22.684Z,69.75
2023-02-27T19:17:50.341Z,70.40
2023-02-27T19:20:18.583Z,70.03
2023-02-27T19:22:46.223Z,69.68
2023-02-27T19:25:13.922Z,69.53
2023-02-27T19:27:41.586Z,69.28
2023-02-27T19:30:10.815Z,69.38
2023-02-27T19:32:39.828Z,69.33
2023-02-27T19:35:12.418Z,68.88
2023-02-27T19:37:40.496Z,68.37
2023-02-27T19:40:09.781Z,68.46
2023-02-27T19:42:37.802Z,68.99
2023-02-27T19:45:06.201Z,68.87
2023-02-27T19:47:34.432Z,69.10
2023-02-27T19:50:03.475Z,68.85
2023-02-27T19:52:31.156Z,68.62
2023-02-27T19:54:58.860Z,68.71
2023-02-27T19:57:26.521Z,69.10
2023-02-27T19:59:54.206Z,69.68
2023-02-27T20:02:21.924Z,69.44
2023-02-27T20:04:49.622Z,70.07
2023-02-27T20:07:19.423Z,70.54
2023-02-27T20:09:47.038Z,70.58
2023-02-27T20:12:14.739Z,70.68
2023-02-27T20:14:42.458Z,71.12
2023-02-27T20:17:10.110Z,71.68
2023-02-27T20:19:37.769Z,71.71
2023-02-27T20:22:05.793Z,72.07
2023-02-27T20:24:35.085Z,72.36
2023-02-27T20:27:02.903Z,71.74
2023-02-27T20:29:30.589Z,71.50
2023-02-27T20:31:58.398Z,71.61
2023-02-27T20:34:27.132Z,72.96
2023-02-27T20:36:57.036Z,73.26
2023-02-27T20:39:25.277Z,73.69
2023-02-27T20:41:54.288Z,73.64
2023-02-27T20:44:22.029Z,73.89
2023-02-27T20:46:50.038Z,73.27
2023-02-27T20:49:18.261Z,73.66
2023-02-27T20:51:46.115Z,73.60
2023-02-27T20:54:19.880Z,73.44
2023-02-27T20:56:51.670Z,73.47
2023-02-27T20:59:22.419Z,73.61
2023-02-27T21:01:52.341Z,73.57
2023-02-27T21:04:22.204Z,73.29
2023-02-27T21:06:50.222Z,73.20
2023-02-27T21:09:18.777Z,73.27
2023-02-27T21:11:46.479Z,73.18
2023-02-27T21:14:14.426Z,74.00
2023-02-27T21:16:43.427Z,74.21
2023-02-27T21:19:11.169Z,74.26
2023-02-27T21:21:38.805Z,74.56
2023-02-27T21:24:07.216Z,74.61
2023-02-27T21:26:40.035Z,75.06
2023-02-27T21:29:09.408Z,75.03
2023-02-27T21:31:38.537Z,75.07
2023-02-27T21:34:11.631Z,75.29
2023-02-27T21:36:42.575Z,75.13
2023-02-27T21:39:13.248Z,75.61
2023-02-27T21:41:41.269Z,75.77
2023-02-27T21:44:10.537Z,75.94
2023-02-27T21:46:38.490Z,75.87
2023-02-27T21:49:07.597Z,75.79
2023-02-27T21:51:40.941Z,75.92
2023-02-27T21:54:11.525Z,76.25
2023-02-27T21:56:39.560Z,76.14
2023-02-27T21:59:07.543Z,76.46
2023-02-27T22:01:35.844Z,76.74
2023-02-27T22:04:03.545Z,76.77
2023-02-27T22:06:34.755Z,77.73
2023-02-27T22:09:05.329Z,78.63
2023-02-27T22:11:34.727Z,79.00
2023-02-27T22:14:02.819Z,79.28
2023-02-27T22:16:30.505Z,79.24
2023-02-27T22:18:58.128Z,78.67
2023-02-27T22:21:28.549Z,79.10
2023-02-27T22:23:58.200Z,78.93
2023-02-27T22:26:28.098Z,78.90
2023-02-27T22:28:57.216Z,78.84
2023-02-27T22:31:27.826Z,78.97
2023-02-27T22:33:59.396Z,79.07
2023-02-27T22:36:30.042Z,79.04
2023-02-27T22:38:59.772Z,79.42
2023-02-27T22:41:29.706Z,79.11
2023-02-27T22:43:58.533Z,79.67
2023-02-27T22:46:28.400Z,79.33
2023-02-27T22:48:56.919Z,80.11
2023-02-27T22:51:27.700Z,80.18
2023-02-27T22:53:57.031Z,80.73
2023-02-27T22:56:26.942Z,80.67
2023-02-27T22:58:55.078Z,80.44
2023-02-27T23:01:24.664Z,80.49
2023-02-27T23:03:53.779Z,80.25
2023-02-27T23:06:26.547Z,80.16
2023-02-27T23:08:54.262Z,80.07
2023-02-27T23:11:22.301Z,80.40
2023-02-27T23:13:51.537Z,80.66
2023-02-27T23:16:19.750Z,80.77
2023-02-27T23:18:50.181Z,80.62
2023-02-27T23:21:19.003Z,81.23
2023-02-27T23:23:46.951Z,80.92
2023-02-27T23:26:16.287Z,81.00
2023-02-27T23:28:43.925Z,80.71
2023-02-27T23:31:13.148Z,80.57
2023-02-27T23:33:40.776Z,80.71
2023-02-27T23:36:08.672Z,80.33
2023-02-27T23:38:36.496Z,80.16
2023-02-27T23:41:08.406Z,80.70
2023-02-27T23:43:36.574Z,81.20
2023-02-27T23:46:08.419Z,81.02
2023-02-27T23:48:37.854Z,80.66
2023-02-27T23:51:07.360Z,81.16
2023-02-27T23:53:36.222Z,81.02
2023-02-27T23:56:13.204Z,81.07
2023-02-27T23:58:40.848Z,81.43
